地図

経路データ

SID SEASON NUMBER BASIN SUBBASIN NAME ISO_TIME NATURE LAT LON WMO_WIND WMO_PRES WMO_AGENCY TRACK_TYPE DIST2LAND LANDFALL IFLAG USA_AGENCY USA_ATCF_ID USA_LAT USA_LON USA_RECORD USA_STATUS USA_WIND USA_PRES USA_SSHS USA_R34_NE USA_R34_SE USA_R34_SW USA_R34_NW USA_R50_NE USA_R50_SE USA_R50_SW USA_R50_NW USA_R64_NE USA_R64_SE USA_R64_SW USA_R64_NW USA_POCI USA_ROCI USA_RMW USA_EYE TOKYO_LAT TOKYO_LON TOKYO_GRADE TOKYO_WIND TOKYO_PRES TOKYO_R50_DIR TOKYO_R50_LONG TOKYO_R50_SHORT TOKYO_R30_DIR TOKYO_R30_LONG TOKYO_R30_SHORT TOKYO_LAND CMA_LAT CMA_LON CMA_CAT CMA_WIND CMA_PRES HKO_LAT HKO_LON HKO_CAT HKO_WIND HKO_PRES NEWDELHI_LAT NEWDELHI_LON NEWDELHI_GRADE NEWDELHI_WIND NEWDELHI_PRES NEWDELHI_CI NEWDELHI_DP NEWDELHI_POCI REUNION_LAT REUNION_LON REUNION_TYPE REUNION_WIND REUNION_PRES REUNION_TNUM REUNION_CI REUNION_RMW REUNION_R34_NE REUNION_R34_SE REUNION_R34_SW REUNION_R34_NW REUNION_R50_NE REUNION_R50_SE REUNION_R50_SW REUNION_R50_NW REUNION_R64_NE REUNION_R64_SE REUNION_R64_SW REUNION_R64_NW BOM_LAT BOM_LON BOM_TYPE BOM_WIND BOM_PRES BOM_TNUM BOM_CI BOM_RMW BOM_R34_NE BOM_R34_SE BOM_R34_SW BOM_R34_NW BOM_R50_NE BOM_R50_SE BOM_R50_SW BOM_R50_NW BOM_R64_NE BOM_R64_SE BOM_R64_SW BOM_R64_NW BOM_ROCI BOM_POCI BOM_EYE BOM_POS_METHOD BOM_PRES_METHOD NADI_LAT NADI_LON NADI_CAT NADI_WIND NADI_PRES WELLINGTON_LAT WELLINGTON_LON WELLINGTON_WIND WELLINGTON_PRES DS824_LAT DS824_LON DS824_STAGE DS824_WIND DS824_PRES TD9636_LAT TD9636_LON TD9636_STAGE TD9636_WIND TD9636_PRES TD9635_LAT TD9635_LON TD9635_WIND TD9635_PRES TD9635_ROCI NEUMANN_LAT NEUMANN_LON NEUMANN_CLASS NEUMANN_WIND NEUMANN_PRES MLC_LAT MLC_LON MLC_CLASS MLC_WIND MLC_PRES USA_GUST BOM_GUST BOM_GUST_PER REUNION_GUST REUNION_GUST_PER USA_SEAHGT USA_SEARAD_NE USA_SEARAD_SE USA_SEARAD_SW USA_SEARAD_NW STORM_SPEED STORM_DIR
1974059S17122 1974 18 SI WA HELEN 1974-02-28 00:00:00 TS -16.8000 122.300 main 24 24 O________OO___ jtwc_sh SH261974 -16.8000 122.300 -1 -16.8000 122.300 TC -16.8000 122.300 4 12 241
1974059S17122 1974 18 SI WA HELEN 1974-02-28 01:00:00 TS -16.8989 122.115 25 1001 bom main 30 30 P_____O__PP___ SH261974 -16.8514 122.095 -1 -17.2000 122.200 20 25 1001 2.00000 -16.8514 122.095 TC -16.8433 122.112 4 12 249
1974059S17122 1974 18 SI WA HELEN 1974-02-28 03:00:00 TS -17.0160 121.721 main 62 62 P_____P__PP___ SH261974 -16.9529 121.688 -1 -17.3334 121.800 20 25 1001 -16.9529 121.688 TC -16.9306 121.734 4 12 253
1974059S17122 1974 18 SI WA HELEN 1974-02-28 04:00:00 TS -17.0749 121.526 25 1001 bom main 77 77 P_____O__PP___ SH261974 -17.0028 121.488 -1 -17.4000 121.600 20 25 1001 2.00000 -17.0028 121.488 TC -16.9752 121.545 4 12 248
1974059S17122 1974 18 SI WA HELEN 1974-02-28 06:00:00 TS -17.2337 121.164 main 105 105 O_____P__OP_O_ jtwc_sh SH261974 -17.1000 121.100 -1 -17.5333 121.200 20 25 999 -17.1000 121.100 TC -17.0683 121.165 4 -17.5000 121.500 TC 30 1000 11 245
1974059S17122 1974 18 SI WA HELEN 1974-02-28 07:00:00 TS -17.3158 120.989 25 999 bom main 121 121 P_____O__PP_P_ SH261974 -17.1472 120.913 -1 -17.6000 121.000 20 25 999 2.00000 -17.1472 120.913 TC -17.1173 120.974 4 -17.5670 121.293 TC 30 999 11 247
1974059S17122 1974 18 SI WA HELEN 1974-02-28 09:00:00 TS -17.4528 120.616 main 159 159 P_____P__PP_P_ SH261974 -17.2422 120.550 -1 -17.7333 120.600 20 25 999 -17.2422 120.550 TC -17.2219 120.588 4 -17.7004 120.883 TC 32 999 11 248
1974059S17122 1974 18 SI WA HELEN 1974-02-28 10:00:00 TS -17.5326 120.433 25 999 bom main 180 177 P_____O__PP_P_ SH261974 -17.2919 120.369 -1 -17.8000 120.400 20 25 999 2.00000 -17.2919 120.369 TC -17.2781 120.393 4 -17.7670 120.683 TC 33 998 12 249
1974059S17122 1974 18 SI WA HELEN 1974-02-28 12:00:00 TS -17.6556 120.049 main 205 205 O_____P__OO_O_ jtwc_sh SH261974 -17.4000 120.000 -1 -17.9333 119.992 20 28 998 -17.4000 120.000 TC -17.4000 120.000 4 -17.9000 120.300 TC 35 998 12 251
1974059S17122 1974 18 SI WA HELEN 1974-02-28 13:00:00 TS -17.7193 119.857 30 998 bom main 215 215 P_____O__PP_P_ SH261974 -17.4583 119.800 -1 -18.0000 119.800 20 30 998 2.50000 -17.4583 119.800 TC -17.4662 119.801 4 -17.9665 120.119 TC 35 997 11 250
1974059S17122 1974 18 SI WA HELEN 1974-02-28 15:00:00 TS -17.8518 119.483 main 235 235 P_____P__PP_P_ SH261974 -17.5850 119.392 -1 -18.1333 119.461 20 30 996 -17.5850 119.392 TC -17.6076 119.403 4 -18.0998 119.777 TC 37 996 11 249
1974059S17122 1974 18 SI WA HELEN 1974-02-28 16:00:00 TS -17.9203 119.302 30 996 bom main 240 232 P_____O__PP_P_ SH261974 -17.6533 119.190 -1 -18.2000 119.300 20 30 996 2.50000 -17.6533 119.190 TC -17.6819 119.205 4 -18.1665 119.614 TC 38 996 11 248
1974059S17122 1974 18 SI WA HELEN 1974-02-28 18:00:00 TS -18.0614 118.946 main 224 224 O_____P__OP_O_ jtwc_sh SH261974 -17.8000 118.800 -1 -18.3333 118.959 20 36 993 -17.8000 118.800 TC -17.8353 118.818 4 -18.3000 119.300 TC 40 995 11 247
1974059S17122 1974 18 SI WA HELEN 1974-02-28 19:00:00 TS -18.1358 118.774 40 992 bom main 225 210 P_____O__PP_P_ SH261974 -17.8802 118.614 -1 -18.4000 118.800 30 40 992 3.00000 -17.8802 118.614 TC -17.9134 118.631 4 -18.3692 119.142 TC 40 994 10 244
1974059S17122 1974 18 SI WA HELEN 1974-02-28 21:00:00 TS -18.2882 118.453 main 210 207 P_____P__PP_P_ SH261974 -18.0499 118.263 -1 -18.5333 118.528 30 40 990 -18.0499 118.263 TC -18.0703 118.274 4 -18.5074 118.835 TC 42 992 10 243
1974059S17122 1974 18 SI WA HELEN 1974-02-28 22:00:00 TS -18.3644 118.301 40 990 bom main 207 207 P_____O__PP_P_ SH261974 -18.1357 118.099 -1 -18.6000 118.400 30 40 990 3.00000 -18.1357 118.099 TC -18.1480 118.107 4 -18.5745 118.687 TC 43 991 10 242
1974059S17122 1974 18 SI WA HELEN 1974-03-01 00:00:00 TS -18.5117 118.012 main 212 202 O_____P__OO_O_ jtwc_sh SH261974 -18.3000 117.800 -1 -18.7333 118.125 30 43 989 -18.3000 117.800 TC -18.3000 117.800 4 -18.7000 118.400 TC 45 990 9 242
1974059S17122 1974 18 SI WA HELEN 1974-03-01 01:00:00 TS -18.5801 117.877 45 989 bom main 202 194 P_____O__PP_P_ SH261974 -18.3723 117.661 -1 -18.8000 118.000 30 45 989 3.00000 -18.3723 117.661 TC -18.3733 117.667 4 -18.7557 118.258 TC 46 989 8 241
1974059S17122 1974 18 SI WA HELEN 1974-03-01 03:00:00 TS -18.7115 117.634 main 197 186 P_____P__PP_P_ SH261974 -18.5074 117.412 -1 -18.9412 117.802 30 45 988 -18.5074 117.412 TC -18.5184 117.432 4 -18.8574 117.985 TC 50 988 8 240
1974059S17122 1974 18 SI WA HELEN 1974-03-01 04:00:00 TS -18.7726 117.520 45 988 bom main 189 187 P_____O__PP_P_ SH261974 -18.5720 117.301 -1 -19.0000 117.700 30 45 988 3.00000 -18.5720 117.301 TC -18.5897 117.326 4 -18.9054 117.853 TC 51 987 7 242
1974059S17122 1974 18 SI WA HELEN 1974-03-01 06:00:00 TS -18.8835 117.294 main 187 187 O_____P__OP_O_ jtwc_sh SH261974 -18.7000 117.100 -1 -19.0721 117.431 30 48 985 -18.7000 117.100 TC -18.7288 117.132 4 -19.0000 117.600 TC 55 986 7 243
1974059S17122 1974 18 SI WA HELEN 1974-03-01 07:00:00 TS -18.9370 117.185 50 985 bom main 192 180 P_____O__PP_P_ SH261974 -18.7692 117.008 -1 -19.1000 117.300 30 50 985 3.50000 -18.7692 117.008 TC -18.7961 117.041 4 -19.0500 117.475 TC 55 985 7 241
1974059S17122 1974 18 SI WA HELEN 1974-03-01 09:00:00 TS -19.0416 116.989 main 180 168 P_____P__PP_P_ SH261974 -18.9074 116.842 -1 -19.1587 117.102 30 50 983 -18.9074 116.842 TC -18.9248 116.866 4 -19.1499 117.235 TC 55 984 6 240
1974059S17122 1974 18 SI WA HELEN 1974-03-01 10:00:00 TS -19.0944 116.893 50 983 bom main 168 156 P_____O__PP_P_ SH261974 -18.9745 116.764 -1 -19.2000 117.000 30 50 983 3.50000 -18.9745 116.764 TC -18.9859 116.779 4 -19.1999 117.120 TC 55 984 7 240
1974059S17122 1974 18 SI WA HELEN 1974-03-01 12:00:00 TS -19.2060 116.688 main 156 145 O_____P__OO_O_ jtwc_sh SH261974 -19.1000 116.600 -1 -19.3358 116.731 30 50 983 -19.1000 116.600 TC -19.1000 116.600 4 -19.3000 116.900 TC 55 983 7 240
1974059S17122 1974 18 SI WA HELEN 1974-03-01 13:00:00 TS -19.2614 116.584 50 983 bom main 145 137 P_____O__PP_P_ SH261974 -19.1583 116.508 -1 -19.4000 116.600 30 50 983 3.50000 -19.1583 116.508 TC -19.1600 116.510 4 -19.3499 116.797 TC 55 982 6 242
1974059S17122 1974 18 SI WA HELEN 1974-03-01 15:00:00 TS -19.3588 116.386 main 137 137 P_____P__PP_P_ SH261974 -19.2649 116.315 -1 -19.4642 116.402 30 50 983 -19.2649 116.315 TC -19.2741 116.331 4 -19.4499 116.600 TC 57 982 6 243
1974059S17122 1974 18 SI WA HELEN 1974-03-01 16:00:00 TS -19.4067 116.284 50 983 bom main 140 133 P_____O__PP_P_ SH261974 -19.3133 116.213 -1 -19.5000 116.300 30 50 983 3.50000 -19.3133 116.213 TC -19.3273 116.240 4 -19.4999 116.502 TC 58 982 7 244
1974059S17122 1974 18 SI WA HELEN 1974-03-01 18:00:00 TS -19.5086 116.063 main 138 133 O_____P__OP_O_ jtwc_sh SH261974 -19.4000 116.000 -1 -19.6279 116.031 30 53 982 -19.4000 116.000 TC -19.4236 116.048 4 -19.6000 116.300 TC 60 982 7 243
1974059S17122 1974 18 SI WA HELEN 1974-03-01 19:00:00 TS -19.5630 115.955 55 982 bom main 133 133 P_____O__PP_P_ SH261974 -19.4468 115.902 -1 -19.7000 115.900 30 55 982 3.50000 -19.4468 115.902 TC -19.4658 115.944 4 -19.6526 116.194 TC 60 982 7 242
1974059S17122 1974 18 SI WA HELEN 1974-03-01 21:00:00 TS -19.6669 115.740 main 143 143 P_____P__PP_P_ SH261974 -19.5297 115.695 -1 -19.8412 115.702 30 55 982 -19.5297 115.695 TC -19.5363 115.716 4 -19.7574 115.972 TC 60 982 7 244
1974059S17122 1974 18 SI WA HELEN 1974-03-01 22:00:00 TS -19.7121 115.623 55 982 bom main 148 143 P_____O__PP_P_ SH261974 -19.5622 115.578 -1 -19.9000 115.600 30 55 982 3.50000 -19.5622 115.578 TC -19.5636 115.588 4 -19.8078 115.855 TC 60 982 8 253
1974059S17122 1974 18 SI WA HELEN 1974-03-02 00:00:00 TS -19.7787 115.356 main 148 148 O_____P__OO_O_ jtwc_sh SH261974 -19.6000 115.300 -1 -19.9721 115.339 30 55 982 -19.6000 115.300 TC -19.6000 115.300 4 -19.9000 115.600 TC 60 982 8 258
1974059S17122 1974 18 SI WA HELEN 1974-03-02 01:00:00 TS -19.7990 115.204 55 982 bom main 161 161 P_____O__PP_P_ SH261974 -19.6005 115.131 -1 -20.0000 115.200 30 55 982 3.50000 -19.6005 115.131 TC -19.6096 115.128 4 -19.9390 115.461 TC 60 981 9 264
1974059S17122 1974 18 SI WA HELEN 1974-03-02 03:00:00 TS -19.8239 114.875 main 178 178 P_____P__PP_P_ SH261974 -19.5725 114.745 -1 -20.0666 114.933 30 55 982 -19.5725 114.745 TC -19.6093 114.749 4 -20.0075 115.165 TC 60 981 10 266
1974059S17122 1974 18 SI WA HELEN 1974-03-02 04:00:00 TS -19.8304 114.701 55 982 bom main 191 191 P_____O__PP_P_ SH261974 -19.5496 114.535 -1 -20.1000 114.800 30 55 982 3.50000 -19.5496 114.535 TC -19.6005 114.545 4 -20.0387 115.011 TC 60 980 10 268
1974059S17122 1974 18 SI WA HELEN 1974-03-02 06:00:00 TS -19.8392 114.342 main 221 214 O_____P__OP_O_ jtwc_sh SH261974 -19.5000 114.100 -1 -20.1666 114.533 30 55 980 -19.5000 114.100 TC -19.5686 114.117 4 -20.1000 114.700 TC 60 980 10 267
1974059S17122 1974 18 SI WA HELEN 1974-03-02 07:00:00 TS -19.8527 114.165 55 980 bom main 214 214 P_____O__PP_P_ SH261974 -19.4859 113.884 -1 -20.2000 114.400 30 55 980 4.00000 -19.4859 113.884 TC -19.5466 113.897 4 -20.1463 114.558 TC 60 979 10 266
1974059S17122 1974 18 SI WA HELEN 1974-03-02 09:00:00 TS -19.8774 113.809 main 224 224 P_____P__PP_P_ SH261974 -19.4575 113.443 -1 -20.2666 114.149 30 55 978 -19.4575 113.443 TC -19.4935 113.452 4 -20.2372 114.273 TC 62 979 10 266
1974059S17122 1974 18 SI WA HELEN 1974-03-02 10:00:00 TS -19.8845 113.624 55 978 bom main 227 227 P_____O__PP_P_ SH261974 -19.4412 113.223 -1 -20.3000 114.000 30 55 978 4.00000 -19.4412 113.223 TC -19.4636 113.231 4 -20.2726 114.124 TC 63 978 11 270
1974059S17122 1974 18 SI WA HELEN 1974-03-02 12:00:00 TS -19.8817 113.236 main 238 238 O_____P__OO_O_ jtwc_sh SH261974 -19.4000 112.800 -1 -20.3903 113.619 30 55 978 -19.4000 112.800 TC -19.4000 112.800 4 -20.3000 113.800 TC 65 978 11 273
1974059S17122 1974 18 SI WA HELEN 1974-03-02 13:00:00 TS -19.8586 113.039 55 978 bom main 246 246 P_____O__PP_P_ SH261974 -19.3722 112.605 -1 -20.4000 113.400 30 55 978 4.00000 -19.3722 112.605 TC -19.3668 112.608 4 -20.2837 113.622 TC 65 977 12 281
1974059S17122 1974 18 SI WA HELEN 1974-03-02 15:00:00 TS -19.7685 112.635 main 276 276 P_____P__PP_P_ SH261974 -19.3072 112.235 -1 -20.2987 112.939 30 55 978 -19.3072 112.235 TC -19.2931 112.232 4 -20.2023 113.237 TC 65 977 12 285
1974059S17122 1974 18 SI WA HELEN 1974-03-02 16:00:00 TS -19.7076 112.430 55 978 bom main 296 296 P_____O__PP_P_ SH261974 -19.2718 112.056 -1 -20.2000 112.700 30 55 978 4.00000 -19.2718 112.056 TC -19.2542 112.048 4 -20.1428 113.032 TC 65 977 12 289
1974059S17122 1974 18 SI WA HELEN 1974-03-02 18:00:00 TS -19.5688 112.020 main 330 330 O_____P__OP_O_ jtwc_sh SH261974 -19.2000 111.700 -1 -19.9362 112.233 30 58 977 -19.2000 111.700 TC -19.1763 111.684 4 -20.0000 112.600 TC 65 977 12 290
1974059S17122 1974 18 SI WA HELEN 1974-03-02 19:00:00 TS -19.4980 111.812 60 977 bom main 352 352 P_____O__PP_P_ SH261974 -19.1613 111.517 -1 -19.8000 112.000 30 60 977 4.00000 -19.1613 111.517 TC -19.1389 111.504 4 -19.9203 112.367 TC 65 977 12 289
1974059S17122 1974 18 SI WA HELEN 1974-03-02 21:00:00 TS -19.3650 111.396 main 388 388 P_____P__PP_P_ SH261974 -19.0848 111.150 -1 -19.5866 111.525 30 60 977 -19.0848 111.150 TC -19.0713 111.144 4 -19.7427 111.885 TC 65 977 12 288
1974059S17122 1974 18 SI WA HELEN 1974-03-02 22:00:00 TS -19.3055 111.191 60 977 bom main 411 411 P_____O__PP_P_ SH261974 -19.0507 110.967 -1 -19.5000 111.300 30 60 977 4.00000 -19.0507 110.967 TC -19.0427 110.964 4 -19.6540 111.646 TC 65 977 12 286
1974059S17122 1974 18 SI WA HELEN 1974-03-03 00:00:00 TS -19.2076 110.798 main 449 449 O_____P__OO_O_ jtwc_sh SH261974 -19.0000 110.600 -1 -19.3454 110.887 30 60 977 -19.0000 110.600 TC -19.0000 110.600 4 -19.5000 111.200 TC 65 977 11 283
1974059S17122 1974 18 SI WA HELEN 1974-03-03 01:00:00 TS -19.1758 110.609 60 977 bom main 465 465 P_____O__PP_P_ SH261974 -18.9858 110.419 -1 -19.3000 110.700 30 60 977 4.00000 -18.9858 110.419 TC -18.9867 110.401 4 -19.4415 111.005 TC 65 976 10 277
1974059S17122 1974 18 SI WA HELEN 1974-03-03 03:00:00 TS -19.1460 110.247 main 504 504 P_____P__PP_P_ SH261974 -18.9773 110.058 -1 -19.2891 110.353 30 60 977 -18.9773 110.058 TC -18.9731 109.996 4 -19.3547 110.655 TC 65 976 10 274
1974059S17122 1974 18 SI WA HELEN 1974-03-03 04:00:00 TS -19.1428 110.073 60 977 bom main 512 512 P_____O__PP_P_ SH261974 -18.9810 109.875 -1 -19.3000 110.200 30 60 977 4.00000 -18.9810 109.875 TC -18.9725 109.793 4 -19.3264 110.496 TC 65 976 10 270
1974059S17122 1974 18 SI WA HELEN 1974-03-03 06:00:00 TS -19.1458 109.736 main 546 546 O_____P__OP_O_ jtwc_sh SH261974 -19.0000 109.500 -1 -19.2921 109.928 30 60 977 -19.0000 109.500 TC -18.9830 109.390 4 -19.3000 110.200 TC 65 976 10 269
1974059S17122 1974 18 SI WA HELEN 1974-03-03 07:00:00 TS -19.1517 109.566 60 978 bom main 548 548 P_____O__PP_P_ SH261974 -19.0084 109.293 -1 -19.3000 109.800 30 60 978 4.00000 -19.0084 109.293 TC -18.9939 109.194 4 -19.2968 110.061 TC 65 975 10 265
1974059S17122 1974 18 SI WA HELEN 1974-03-03 09:00:00 TS -19.1855 109.230 main 583 583 P_____P__PP_P_ SH261974 -19.0352 108.870 -1 -19.3691 109.533 30 63 975 -19.0352 108.870 TC -19.0263 108.815 4 -19.3197 109.800 TC 67 975 10 263
1974059S17122 1974 18 SI WA HELEN 1974-03-03 10:00:00 TS -19.2074 109.067 65 974 bom main 592 592 P_____O__PP_P_ SH261974 -19.0535 108.666 -1 -19.4000 109.400 40 65 974 4.50000 -19.0535 108.666 TC -19.0477 108.635 4 -19.3422 109.672 TC 68 974 9 262
1974059S17122 1974 18 SI WA HELEN 1974-03-03 12:00:00 TS -19.2496 108.757 main 619 619 O_____P__OO_O_ jtwc_sh SH261974 -19.1000 108.300 -1 -19.3975 109.141 40 65 974 -19.1000 108.300 TC -19.1000 108.300 4 -19.4000 109.400 TC 70 974 9 262
1974059S17122 1974 18 SI WA HELEN 1974-03-03 13:00:00 TS -19.2701 108.615 65 974 bom main 632 632 P_____O__PP_P_ SH261974 -19.1248 108.155 -1 -19.4000 109.000 40 65 974 4.50000 -19.1248 108.155 TC -19.1212 108.177 4 -19.4250 109.245 TC 70 973 8 259
1974059S17122 1974 18 SI WA HELEN 1974-03-03 15:00:00 TS -19.3277 108.340 main 660 655 P_____P__PP_P_ SH261974 -19.1847 107.912 -1 -19.4533 108.672 40 65 974 -19.1847 107.912 TC -19.1735 107.965 4 -19.4850 108.915 TC 70 973 8 256
1974059S17122 1974 18 SI WA HELEN 1974-03-03 16:00:00 TS -19.3640 108.207 65 974 bom main 664 664 P_____O__PP_P_ SH261974 -19.2197 107.806 -1 -19.5000 108.500 40 65 974 4.50000 -19.2197 107.806 TC -19.2048 107.869 4 -19.5200 108.744 TC 70 973 8 252
1974059S17122 1974 18 SI WA HELEN 1974-03-03 18:00:00 TS -19.4537 107.941 main 685 685 O_____P__OP_O_ jtwc_sh SH261974 -19.3000 107.600 -1 -19.6437 108.167 40 65 974 -19.3000 107.600 TC -19.2788 107.681 4 -19.6000 108.400 TC 70 973 8 250
1974059S17122 1974 18 SI WA HELEN 1974-03-03 19:00:00 TS -19.4979 107.813 65 974 bom main 694 694 P_____O__PP_P_ SH261974 -19.3415 107.502 -1 -19.7000 108.000 40 65 974 4.50000 -19.3415 107.502 TC -19.3217 107.581 4 -19.6415 108.244 TC 70 973 8 252
1974059S17122 1974 18 SI WA HELEN 1974-03-03 21:00:00 TS -19.5742 107.550 main 706 706 P_____P__PP_P_ SH261974 -19.4345 107.302 -1 -19.6871 107.667 40 65 974 -19.4345 107.302 TC -19.4199 107.356 4 -19.7346 107.930 TC 70 973 8 252
1974059S17122 1974 18 SI WA HELEN 1974-03-03 22:00:00 TS -19.6201 107.407 65 974 bom main 725 725 P_____O__PP_P_ SH261974 -19.4862 107.188 -1 -19.7000 107.500 40 65 974 4.50000 -19.4862 107.188 TC -19.4754 107.223 4 -19.7863 107.765 TC 70 973 10 248
1974059S17122 1974 18 SI WA HELEN 1974-03-04 00:00:00 TS -19.7486 107.080 main 747 742 O_____P__OO_O_ jtwc_sh SH261974 -19.6000 106.900 -1 -19.8915 107.183 40 68 973 -19.6000 106.900 TC -19.6000 106.900 4 -19.9000 107.400 TC 70 973 11 248
1974059S17122 1974 18 SI WA HELEN 1974-03-04 01:00:00 TS -19.8157 106.889 70 973 bom main 761 761 P_____O__PP_P_ SH261974 -19.6556 106.722 -1 -20.0000 107.000 40 70 973 4.50000 4 -19.6556 106.722 TC -19.6691 106.704 4 -19.9582 107.197 TC 70 973 13 252
1974059S17122 1974 18 SI WA HELEN 1974-03-04 03:00:00 TS -19.9457 106.444 main 804 800 P_____P__PP_P_ SH261974 -19.7771 106.297 -1 -20.1387 106.560 40 70 973 -19.7771 106.297 TC -19.8191 106.247 4 -20.0848 106.752 TC 70 973 14 253
1974059S17122 1974 18 SI WA HELEN 1974-03-04 04:00:00 TS -20.0146 106.193 70 973 bom main 819 819 P_____O__PP_P_ SH261974 -19.8450 106.052 -1 -20.2000 106.300 40 70 973 4.50000 -19.8450 106.052 TC -19.8992 105.990 4 -20.1531 106.512 TC 70 973 16 254
1974059S17122 1974 18 SI WA HELEN 1974-03-04 06:00:00 TS -20.1654 105.640 main 870 870 O_____P__OP_O_ jtwc_sh SH261974 -20.0000 105.500 -1 -20.3254 105.711 40 70 973 -20.0000 105.500 TC -20.0670 105.427 4 -20.3000 106.000 TC 70 973 17 254
1974059S17122 1974 18 SI WA HELEN 1974-03-04 07:00:00 TS -20.2506 105.343 70 973 bom main 896 896 P_____O__PP_P_ SH261974 -20.0886 105.196 -1 -20.4000 105.400 40 70 973 4.50000 -20.0886 105.196 TC -20.1538 105.125 4 -20.3786 105.730 TC 70 973 18 251
1974059S17122 1974 18 SI WA HELEN 1974-03-04 09:00:00 TS -20.4553 104.733 main 949 949 P_____P__PP_P_ SH261974 -20.2839 104.544 -1 -20.5945 104.800 40 70 973 -20.2839 104.544 TC -20.3312 104.492 4 -20.5434 105.171 TC 70 973 18 249
1974059S17122 1974 18 SI WA HELEN 1974-03-04 10:00:00 TS -20.5793 104.430 70 973 bom main 976 976 P_____O__PP_P_ SH261974 -20.3876 104.201 -1 -20.7000 104.500 40 70 973 4.50000 -20.3876 104.201 TC -20.4208 104.165 4 -20.6284 104.883 TC 70 973 18 247
1974059S17122 1974 18 SI WA HELEN 1974-03-04 12:00:00 TS -20.8193 103.831 main 1031 1029 O_____P__OO_O_ jtwc_sh SH261974 -20.6000 103.500 -1 -20.9078 103.892 40 70 973 -20.6000 103.500 TC -20.6000 103.500 6 -20.8000 104.300 TC 70 973 17 242
1974059S17122 1974 18 SI WA HELEN 1974-03-04 13:00:00 TS -20.9889 103.611 70 973 bom main 1047 1047 ______O_______ SH261974 -1 -21.0000 103.600 40 70 973 4.50000 TC 6 TC 15 247
1974059S17122 1974 18 SI WA HELEN 1974-03-04 15:00:00 TS -21.1267 103.071 main 1096 1096 ______P_______ SH261974 -1 -21.1387 103.045 40 70 973 TC 6 TC 15 255
1974059S17122 1974 18 SI WA HELEN 1974-03-04 16:00:00 TS -21.1887 102.826 70 973 bom main 1124 1124 ______O_______ SH261974 -1 -21.2000 102.800 40 70 973 4.50000 TC 6 TC 13 253
1974059S17122 1974 18 SI WA HELEN 1974-03-04 18:00:00 TS -21.3166 102.395 main 1163 1163 ______P_______ -1 -21.3332 102.389 40 70 973 6 13 251
1974059S17122 1974 18 SI WA HELEN 1974-03-04 19:00:00 TS -21.3872 102.189 70 973 bom main 1182 1182 ______O_______ -1 -21.4000 102.200 40 70 973 4.50000 6 12 249
1974059S17122 1974 18 SI WA HELEN 1974-03-04 21:00:00 TS -21.5318 101.780 main 1221 1221 ______P_______ -1 -21.5413 101.784 40 70 973 6 12 249
1974059S17122 1974 18 SI WA HELEN 1974-03-04 22:00:00 TS -21.5951 101.599 70 973 bom main 1240 1240 ______O_______ -1 -21.6000 101.600 40 70 973 4.50000 6 9 250
1974059S17122 1974 18 SI WA HELEN 1974-03-05 00:00:00 TS -21.6900 101.307 main 1269 1269 ______P_______ -1 -21.6800 101.315 40 66 973 8 252
1974059S17122 1974 18 SI WA HELEN 1974-03-05 01:00:00 TS -21.7181 101.189 65 974 bom main 1280 1280 ______O_______ -1 -21.7000 101.200 40 65 974 4.50000 6 261
1974059S17122 1974 18 SI WA HELEN 1974-03-05 03:00:00 TS -21.7386 100.988 main 1300 1300 ______P_______ -1 -21.6975 100.987 40 65 974 5 264
1974059S17122 1974 18 SI WA HELEN 1974-03-05 04:00:00 TS -21.7453 100.909 65 974 bom main 1310 1309 ______O_______ -1 -21.7000 100.900 40 65 974 4.50000 4 257
1974059S17122 1974 18 SI WA HELEN 1974-03-05 06:00:00 TS -21.7846 100.777 main 1319 1319 ______P_______ -1 -21.7691 100.753 40 65 974 4 252
1974059S17122 1974 18 SI WA HELEN 1974-03-05 07:00:00 TS -21.8028 100.718 65 974 bom main 1329 1329 ______O_______ -1 -21.8000 100.700 40 65 974 4.50000 3 261
1974059S17122 1974 18 SI WA HELEN 1974-03-05 09:00:00 TS -21.8064 100.628 main 1339 1339 ______P_______ -1 -21.8054 100.628 40 65 974 2 270
1974059S17122 1974 18 SI WA HELEN 1974-03-05 10:00:00 TS -21.8027 100.591 65 974 bom main 1339 1339 ______O_______ -1 -21.8000 100.600 40 65 974 4.50000 2 274
1974059S17122 1974 18 SI WA HELEN 1974-03-05 12:00:00 TS -21.8000 100.517 main 1349 1349 ______P_______ -1 -21.8000 100.533 40 61 976 2 271
1974059S17122 1974 18 SI WA HELEN 1974-03-05 13:00:00 TS -21.8000 100.482 60 977 bom main 1349 1349 ______O_______ -1 -21.8000 100.500 30 60 977 4.00000 2 270
1974059S17122 1974 18 SI WA HELEN 1974-03-05 15:00:00 TS -21.8000 100.417 main 1359 1359 ______P_______ -1 -21.8000 100.433 30 60 978 2 270
1974059S17122 1974 18 SI WA HELEN 1974-03-05 16:00:00 TS -21.8000 100.385 60 979 bom main 1359 1359 ______O_______ -1 -21.8000 100.400 30 60 979 4.00000 2 270
1974059S17122 1974 18 SI WA HELEN 1974-03-05 18:00:00 TS -21.8000 100.321 main 1369 1369 ______P_______ -1 -21.8000 100.341 30 56 979 2 269
1974059S17122 1974 18 SI WA HELEN 1974-03-05 19:00:00 TS -21.8013 100.284 55 980 bom main 1369 1369 ______O_______ -1 -21.8000 100.300 30 55 980 4.00000 3 268
1974059S17122 1974 18 SI WA HELEN 1974-03-05 21:00:00 TS -21.8037 100.184 main 1379 1379 ______P_______ -1 -21.8000 100.172 30 55 980 3 269
1974059S17122 1974 18 SI WA HELEN 1974-03-05 22:00:00 TS -21.8039 100.122 55 980 bom main 1389 1389 ______O_______ -1 -21.8000 100.100 30 55 980 4.00000 4 271
1974059S17122 1974 18 SI WA HELEN 1974-03-06 00:00:00 TS -21.8000 99.9912 main 1399 1399 ______P_______ -1 -21.8000 99.9825 30 55 980 4 272
1974059S17122 1974 18 SI WA HELEN 1974-03-06 01:00:00 TS -21.7958 99.9016 55 981 bom main 1409 1409 ______O_______ -1 -21.8000 99.9000 30 55 981 4.00000 6 272
1974059S17122 1974 18 SI WA HELEN 1974-03-06 03:00:00 TS -21.7864 99.6561 main 1429 1429 ______P_______ -1 -21.8079 99.6521 30 51 981 7 274
1974059S17122 1974 18 SI WA HELEN 1974-03-06 04:00:00 TS -21.7733 99.5088 50 982 bom main 1449 1449 ______O_______ -1 -21.8000 99.5000 30 50 982 3.50000 9 279
1974059S17122 1974 18 SI WA HELEN 1974-03-06 06:00:00 TS -21.7194 99.1860 main 1482 1482 ______P_______ -1 -21.7388 99.1721 30 50 982 9 281
1974059S17122 1974 18 SI WA HELEN 1974-03-06 07:00:00 TS -21.6862 99.0182 50 982 bom main 1502 1502 ______O_______ -1 -21.7000 99.0000 30 50 982 3.50000 10 282
1974059S17122 1974 18 SI WA HELEN 1974-03-06 09:00:00 TS -21.6204 98.6773 main 1535 1535 ______P_______ -1 -21.6333 98.6746 30 50 983 10 282
1974059S17122 1974 18 SI WA HELEN 1974-03-06 10:00:00 TS -21.5860 98.4954 50 984 bom main 1555 1555 ______O_______ -1 -21.6000 98.5000 30 50 984 3.50000 11 281
1974059S17122 1974 18 SI WA HELEN 1974-03-06 12:00:00 TS -21.5167 98.1027 main 1598 1598 ______P_______ -1 -21.5333 98.1054 30 50 987 11 281
1974059S17122 1974 18 SI WA HELEN 1974-03-06 13:00:00 TS -21.4820 97.9016 50 989 bom main 1618 1618 ______O_______ -1 -21.5000 97.9000 30 50 989 3.50000 11 280
1974059S17122 1974 18 SI WA HELEN 1974-03-06 15:00:00 TS -21.4129 97.5000 main 1661 1661 ______P_______ -1 -21.4333 97.5000 30 43 992 11 280
1974059S17122 1974 18 SI WA HELEN 1974-03-06 16:00:00 TS -21.3794 97.2988 40 994 bom main 1681 1681 ______O_______ -1 -21.4000 97.3000 30 40 994 3.00000 11 280
1974059S17122 1974 18 SI WA HELEN 1974-03-06 18:00:00 TS -21.3127 96.9000 main 1724 1724 ______P_______ -1 -21.3254 96.9000 30 36 994 11 279
1974059S17122 1974 18 SI WA HELEN 1974-03-06 19:00:00 TS -21.2888 96.7042 35 995 bom main 1744 1744 ______O_______ -1 -21.3000 96.7000 30 35 995 3.00000 11 274
1974059S17122 1974 18 SI WA HELEN 1974-03-06 21:00:00 TS -21.2724 96.3137 main 1784 1784 ______P_______ -1 -21.3025 96.2922 30 35 995 11 273
1974059S17122 1974 18 SI WA HELEN 1974-03-06 22:00:00 TS -21.2639 96.1267 35 996 bom main 1804 1804 ______O_______ -1 -21.3000 96.1000 30 35 996 3.00000 10 277
1974059S17122 1974 18 SI WA HELEN 1974-03-07 00:00:00 TS -21.2154 95.7806 main 1837 1837 ______P_______ -1 -21.2308 95.7612 30 31 998 10 279
1974059S17122 1974 18 SI WA HELEN 1974-03-07 01:00:00 TS -21.1916 95.6099 30 999 bom main 1857 1857 ______O_______ -1 -21.2000 95.6000 20 30 999 2.50000 10 275
1974059S17122 1974 18 SI WA HELEN 1974-03-07 03:00:00 TS -21.1762 95.2644 main 1887 1887 ______P_______ -1 -21.2025 95.2588 20 30 999 9 273
1974059S17122 1974 18 SI WA HELEN 1974-03-07 04:00:00 TS -21.1667 95.1021 30 999 bom main 1907 1907 ______O_______ -1 -21.2000 95.1000 20 30 999 2.50000 9 278
1974059S17122 1974 18 SI WA HELEN 1974-03-07 06:00:00 TS -21.1154 94.8021 main 1940 1940 ______P_______ -1 -21.1309 94.8042 20 30 999 8 281
1974059S17122 1974 18 SI WA HELEN 1974-03-07 07:00:00 TS -21.0903 94.6857 30 999 bom main 1950 1950 ______O_______ -1 -21.1000 94.7000 20 30 999 2.50000 5 281
1974059S17122 1974 18 SI WA HELEN 1974-03-07 09:00:00 TS -21.0722 94.5535 main 1960 1960 ______P_______ -1 -21.1023 94.6645 20 26 1000 4 278
1974059S17122 1974 18 SI WA HELEN 1974-03-07 10:00:00 TS -21.0626 94.4664 25 1001 bom main 1970 1969 ______O_______ -1 -21.1000 94.6000 20 25 1001 2.00000 8 278
1974059S17122 1974 18 SI WA HELEN 1974-03-07 12:00:00 TS -21.0155 94.1211 main 1988 1988 ______P_______ -1 -21.0311 94.1421 20 25 1003 10 277
1974059S17122 1974 18 SI WA HELEN 1974-03-07 13:00:00 TS -20.9971 93.9307 25 1004 bom main 2001 2001 ______O_______ -1 -21.0000 93.9000 20 25 1004 2.00000 9 273
1974059S17122 1974 18 SI WA HELEN 1974-03-07 15:00:00 TS -20.9935 93.6411 main 2021 2021 ______P_______ -1 -20.9945 93.6171 20 25 1004 8 270
1974059S17122 1974 18 SI WA HELEN 1974-03-07 16:00:00 TS -20.9973 93.5055 25 1004 bom main 2028 2028 ______O_______ -1 -21.0000 93.5000 20 25 1004 1.50000 8 269
1974059S17122 1974 18 SI WA HELEN 1974-03-07 18:00:00 TS -21.0000 93.2206 main 2048 2048 ______P_______ -1 -21.0000 93.2412 20 25 1003 8 269
1974059S17122 1974 18 SI WA HELEN 1974-03-07 19:00:00 TS -21.0009 93.0733 25 1003 bom main 2055 2055 ______O_______ -1 -21.0000 93.1000 20 25 1003 1.50000 9 270
1974059S17122 1974 18 SI WA HELEN 1974-03-07 21:00:00 TS -21.0011 92.7605 main 2075 2075 ______P_______ -1 -21.0000 92.7721 20 25 1003 9 270
1974059S17122 1974 18 SI WA HELEN 1974-03-07 22:00:00 TS -21.0009 92.5984 25 1004 bom main 2089 2089 ______O_______ -1 -21.0000 92.6000 20 25 1004 1.50000 9 270
1974059S17122 1974 18 SI WA HELEN 1974-03-08 00:00:00 TS -21.0000 92.2765 main 2110 2110 ______P_______ -1 -21.0001 92.2647 20 25 1004 9 270
1974059S17122 1974 18 SI WA HELEN 1974-03-08 01:00:00 NR -21.0000 92.1000 25 1005 bom main 2125 ______O_______ -1 -21.0000 92.1000 20 25 1005 1.50000 10 270

IBTrACS Databaseについて

本データベースは、米国NOAAが公開する1842年以降の世界の熱帯低気圧のベストトラックデータアーカイブInternational Best Track Archive for Climate Stewardship (IBTrACS)を、ウェブで閲覧しやすい形式に変換したものです。

最終更新日:2021-12-03